Time;durP1;ratioP1;P1;durP2;ratioP2;P2;SDS_P1;SDS_P2;PMS_P1;PMS_P2;Temp;Humidity;BMP_temperature;BMP_pressure;BME280_temperature;BME280_humidity;BME280_pressure;Samples;Min_cycle;Max_cycle;Signal;HPM_P1;HPM_P2
2022/10/23 00:01:34;;;;;;;15.90;6.00;;;11.90;99.90;;;;;;4987570;28;20038;-39
2022/10/23 00:04:05;;;;;;;8.35;4.95;;;11.90;99.90;;;;;;4988657;28;20039;-40
2022/10/23 00:06:33;;;;;;;8.20;4.38;;;11.90;99.90;;;;;;4990426;28;20038;-39
2022/10/23 00:08:59;;;;;;;9.30;4.85;;;11.80;99.90;;;;;;4989250;28;20468;-39
2022/10/23 00:11:29;;;;;;;13.18;5.63;;;11.80;99.90;;;;;;4987904;28;20120;-39
2022/10/23 00:13:58;;;;;;;9.07;4.57;;;11.80;99.90;;;;;;4988489;28;20042;-40
2022/10/23 00:16:23;;;;;;;12.68;6.20;;;11.80;99.90;;;;;;4986723;28;20507;-39
2022/10/23 00:18:49;;;;;;;11.48;5.55;;;11.80;99.90;;;;;;4989578;28;20042;-39
2022/10/23 00:21:15;;;;;;;11.23;5.18;;;11.80;99.90;;;;;;4986469;28;20186;-39
2022/10/23 00:23:42;;;;;;;10.20;5.35;;;11.80;99.90;;;;;;4988813;28;20050;-39
2022/10/23 00:26:10;;;;;;;13.35;5.88;;;11.80;99.90;;;;;;4985058;28;20507;-39
2022/10/23 00:28:37;;;;;;;13.63;6.25;;;11.80;99.90;;;;;;4990216;28;20046;-40
2022/10/23 00:31:06;;;;;;;10.52;5.18;;;11.80;99.90;;;;;;4992799;28;20049;-39
2022/10/23 00:33:32;;;;;;;14.63;5.70;;;11.70;99.90;;;;;;4990571;28;20050;-39
2022/10/23 00:35:58;;;;;;;11.90;6.22;;;11.70;99.90;;;;;;4986350;28;20030;-40
2022/10/23 00:38:24;;;;;;;11.30;5.55;;;11.70;99.90;;;;;;4987938;28;20545;-40
2022/10/23 00:40:50;;;;;;;10.95;6.10;;;11.70;99.90;;;;;;4986875;28;20523;-39
2022/10/23 00:43:23;;;;;;;12.07;5.93;;;11.70;99.90;;;;;;4983978;28;20053;-41
2022/10/23 00:45:49;;;;;;;11.63;5.75;;;11.70;99.90;;;;;;4981664;28;20143;-41
2022/10/23 00:48:15;;;;;;;10.80;5.88;;;11.60;99.90;;;;;;4983703;28;20081;-40
2022/10/23 00:50:42;;;;;;;11.80;6.28;;;11.60;99.90;;;;;;4985915;28;20042;-40
2022/10/23 00:53:09;;;;;;;12.02;5.90;;;11.60;99.90;;;;;;4988965;28;20052;-39
2022/10/23 00:55:37;;;;;;;11.35;5.68;;;11.60;99.90;;;;;;4984823;28;20105;-40
2022/10/23 00:58:03;;;;;;;13.63;5.28;;;11.50;99.90;;;;;;4989024;28;20073;-40
2022/10/23 01:00:46;;;;;;;10.70;5.38;;;11.50;99.90;;;;;;4992551;28;20030;-40
2022/10/23 01:03:14;;;;;;;11.73;5.45;;;11.50;99.90;;;;;;4989666;28;20524;-39
2022/10/23 01:06:04;;;;;;;8.85;4.32;;;11.50;99.90;;;;;;4990850;28;20047;-40
2022/10/23 01:08:47;;;;;;;11.07;6.35;;;11.50;99.90;;;;;;4986204;28;20046;-40
2022/10/23 01:11:39;;;;;;;10.30;6.32;;;11.50;99.90;;;;;;4989585;28;20073;-39
2022/10/23 01:14:22;;;;;;;15.82;5.70;;;11.50;99.90;;;;;;4985269;28;20061;-40
2022/10/23 01:17:06;;;;;;;12.48;6.65;;;11.40;99.90;;;;;;4991059;28;20551;-41
2022/10/23 01:19:50;;;;;;;12.10;6.13;;;11.40;99.90;;;;;;4990901;28;20056;-40
2022/10/23 01:22:25;;;;;;;13.50;6.20;;;11.50;99.90;;;;;;4987332;28;20043;-39
2022/10/23 01:24:57;;;;;;;9.77;5.78;;;11.50;99.90;;;;;;4986516;28;20053;-40
2022/10/23 01:27:35;;;;;;;10.38;5.60;;;11.40;99.90;;;;;;4988041;28;20042;-40
2022/10/23 01:30:08;;;;;;;10.75;5.10;;;11.40;99.90;;;;;;4987486;28;20069;-39
2022/10/23 01:32:49;;;;;;;11.85;4.97;;;11.40;99.90;;;;;;4990264;28;20046;-39
2022/10/23 01:35:26;;;;;;;15.15;6.32;;;11.40;99.90;;;;;;4988290;28;20030;-39
2022/10/23 01:38:10;;;;;;;12.23;5.15;;;11.40;99.90;;;;;;4980894;28;20057;-39
2022/10/23 01:40:47;;;;;;;9.10;5.10;;;11.40;99.90;;;;;;4982029;28;20122;-40
2022/10/23 01:43:19;;;;;;;6.85;4.25;;;11.40;99.90;;;;;;4987247;28;20914;-40
2022/10/23 01:45:51;;;;;;;11.68;5.00;;;11.40;99.90;;;;;;4989028;28;20057;-43
2022/10/23 01:48:22;;;;;;;11.90;4.40;;;11.40;99.90;;;;;;4987985;28;20542;-40
2022/10/23 01:50:49;;;;;;;7.95;4.60;;;11.40;99.90;;;;;;4992051;28;20041;-39
2022/10/23 01:53:17;;;;;;;8.95;4.80;;;11.40;99.90;;;;;;4990852;28;20038;-40
2022/10/23 01:55:43;;;;;;;7.03;4.35;;;11.40;99.90;;;;;;4986018;28;20034;-39
2022/10/23 01:58:10;;;;;;;10.30;4.35;;;11.40;99.90;;;;;;4990757;28;20108;-39
2022/10/23 02:00:39;;;;;;;10.30;4.57;;;11.40;99.90;;;;;;4991496;28;20034;-39
2022/10/23 02:03:06;;;;;;;12.23;6.00;;;11.30;99.90;;;;;;4988258;28;20129;-39
2022/10/23 02:05:32;;;;;;;10.80;5.35;;;11.40;99.90;;;;;;4986776;28;20043;-39
2022/10/23 02:08:00;;;;;;;8.73;5.00;;;11.40;99.90;;;;;;4987586;28;20492;-40
2022/10/23 02:10:39;;;;;;;10.32;4.93;;;11.30;99.90;;;;;;4992737;28;20042;-40
2022/10/23 02:13:11;;;;;;;7.45;4.88;;;11.30;99.90;;;;;;4987093;28;20121;-40
2022/10/23 02:15:45;;;;;;;7.70;4.55;;;11.40;99.90;;;;;;4986856;28;20121;-40
2022/10/23 02:18:50;;;;;;;12.80;5.55;;;11.30;99.90;;;;;;4986833;28;20496;-40
2022/10/23 02:21:40;;;;;;;8.63;4.95;;;11.30;99.90;;;;;;4985898;28;21991;-39
2022/10/23 02:24:15;;;;;;;10.13;4.82;;;11.30;99.90;;;;;;4990409;28;20081;-39
2022/10/23 02:27:11;;;;;;;8.70;4.85;;;11.30;99.90;;;;;;4987641;28;20065;-39
2022/10/23 02:29:45;;;;;;;12.25;6.32;;;11.30;99.90;;;;;;4983561;28;20431;-40
2022/10/23 02:32:13;;;;;;;11.00;6.20;;;11.30;99.90;;;;;;4987350;28;20042;-40
2022/10/23 02:34:39;;;;;;;8.48;5.28;;;11.40;99.90;;;;;;4983804;28;20046;-39
2022/10/23 02:37:05;;;;;;;9.50;5.05;;;11.40;99.90;;;;;;4985876;28;20404;-40
2022/10/23 02:39:30;;;;;;;9.95;5.38;;;11.40;99.90;;;;;;4983888;28;20065;-39
2022/10/23 02:42:20;;;;;;;8.07;4.63;;;11.30;99.90;;;;;;4992033;28;20049;-39
2022/10/23 02:44:55;;;;;;;13.70;4.93;;;11.40;99.90;;;;;;4987354;28;20046;-40
2022/10/23 02:47:54;;;;;;;14.30;5.53;;;11.40;99.90;;;;;;4987630;28;20054;-40
2022/10/23 02:50:32;;;;;;;8.32;4.45;;;11.40;99.90;;;;;;4983794;28;20046;-41
2022/10/23 02:53:29;;;;;;;8.25;5.20;;;11.30;99.90;;;;;;4987352;28;20133;-39
2022/10/23 02:56:11;;;;;;;11.05;6.03;;;11.30;99.90;;;;;;4983522;28;20042;-39
2022/10/23 02:58:46;;;;;;;11.23;6.28;;;11.30;99.90;;;;;;4987552;28;20046;-39
2022/10/23 03:01:18;;;;;;;14.88;5.97;;;11.30;99.90;;;;;;4987329;28;20042;-40
2022/10/23 03:03:56;;;;;;;12.70;5.88;;;11.20;99.90;;;;;;4987074;28;20042;-40
2022/10/23 03:06:23;;;;;;;9.15;5.80;;;11.20;99.90;;;;;;4988034;28;20046;-39
2022/10/23 03:08:52;;;;;;;14.00;6.78;;;11.20;99.90;;;;;;4985159;28;20129;-40
2022/10/23 03:11:18;;;;;;;10.77;5.78;;;11.20;99.90;;;;;;4981192;28;20049;-39
2022/10/23 03:13:44;;;;;;;9.57;5.43;;;11.20;99.90;;;;;;4990152;28;20042;-40
2022/10/23 03:16:10;;;;;;;12.82;6.63;;;11.20;99.90;;;;;;4987578;28;20042;-39
2022/10/23 03:18:35;;;;;;;12.13;5.80;;;11.20;99.90;;;;;;4983904;28;20045;-40
2022/10/23 03:21:01;;;;;;;12.48;5.75;;;11.20;99.90;;;;;;4987067;28;20078;-40
2022/10/23 03:23:27;;;;;;;11.25;5.90;;;11.20;99.90;;;;;;4982333;28;20470;-40
2022/10/23 03:25:54;;;;;;;21.05;6.00;;;11.20;99.90;;;;;;4986733;28;20046;-40
2022/10/23 03:28:20;;;;;;;12.38;6.78;;;11.20;99.90;;;;;;4988448;28;20121;-41
2022/10/23 03:30:46;;;;;;;10.38;6.80;;;11.20;99.90;;;;;;4986592;28;20045;-40
2022/10/23 03:33:12;;;;;;;13.80;7.43;;;11.20;99.90;;;;;;4986870;28;20042;-40
2022/10/23 03:35:37;;;;;;;12.50;6.20;;;11.20;99.90;;;;;;4985395;28;20034;-39
2022/10/23 03:38:03;;;;;;;10.60;6.07;;;11.10;99.90;;;;;;4984923;28;20046;-39
2022/10/23 03:40:29;;;;;;;10.63;6.60;;;11.20;99.90;;;;;;4982880;28;20121;-40
2022/10/23 03:42:54;;;;;;;11.68;7.38;;;11.20;99.90;;;;;;4976572;28;130453;-40
2022/10/23 03:45:20;;;;;;;10.80;6.63;;;11.20;99.90;;;;;;4995432;28;20046;-41
2022/10/23 03:47:46;;;;;;;10.15;5.63;;;11.10;99.90;;;;;;4988061;28;20072;-40
2022/10/23 03:50:12;;;;;;;11.60;6.72;;;11.10;99.90;;;;;;4988198;28;20381;-40
2022/10/23 03:52:38;;;;;;;10.70;6.65;;;11.10;99.90;;;;;;4984753;28;20153;-39
2022/10/23 03:55:04;;;;;;;14.25;7.07;;;11.10;99.90;;;;;;4984935;28;20045;-40
2022/10/23 03:57:30;;;;;;;13.18;6.90;;;11.10;99.90;;;;;;4985287;28;20046;-40
2022/10/23 03:59:56;;;;;;;13.45;5.65;;;11.10;99.90;;;;;;4983232;28;20053;-39
2022/10/23 04:02:21;;;;;;;15.95;7.15;;;11.10;99.90;;;;;;4988668;28;20077;-40
2022/10/23 04:04:47;;;;;;;11.18;6.43;;;11.10;99.90;;;;;;4985079;28;20088;-40
2022/10/23 04:07:13;;;;;;;15.38;7.40;;;11.00;99.90;;;;;;4989219;28;20089;-41
2022/10/23 04:09:38;;;;;;;13.60;7.38;;;11.00;99.90;;;;;;4984235;28;20102;-39
2022/10/23 04:12:04;;;;;;;13.23;7.43;;;11.00;99.90;;;;;;4986683;28;20045;-39
2022/10/23 04:14:30;;;;;;;9.77;6.65;;;11.00;99.90;;;;;;4983904;28;20125;-40
2022/10/23 04:16:56;;;;;;;11.60;7.80;;;11.00;99.90;;;;;;4986204;28;20117;-40
2022/10/23 04:19:21;;;;;;;12.68;7.25;;;11.00;99.90;;;;;;4990097;28;20507;-40
2022/10/23 04:21:47;;;;;;;13.00;7.65;;;11.00;99.90;;;;;;4992863;28;20178;-40
2022/10/23 04:24:13;;;;;;;16.40;7.78;;;11.00;99.90;;;;;;4985605;28;20511;-39
2022/10/23 04:26:39;;;;;;;12.45;8.32;;;11.00;99.90;;;;;;4987801;28;20408;-40
2022/10/23 04:29:04;;;;;;;15.43;7.63;;;11.00;99.90;;;;;;4990297;28;20126;-40
2022/10/23 04:31:30;;;;;;;15.40;7.45;;;11.00;99.90;;;;;;4987610;28;20066;-39
2022/10/23 04:33:55;;;;;;;11.77;6.75;;;11.00;99.90;;;;;;4990941;28;20582;-39
2022/10/23 04:36:21;;;;;;;12.93;7.55;;;11.00;99.90;;;;;;4986203;28;20081;-39
2022/10/23 04:38:47;;;;;;;12.25;7.00;;;11.00;99.90;;;;;;4990395;28;20072;-39
2022/10/23 04:41:13;;;;;;;15.80;8.35;;;11.00;99.90;;;;;;4991173;28;20118;-40
2022/10/23 04:43:38;;;;;;;16.40;8.10;;;11.00;99.90;;;;;;4987905;28;20050;-40
2022/10/23 04:46:04;;;;;;;12.13;6.57;;;10.90;99.90;;;;;;4992089;28;20058;-39
2022/10/23 04:48:30;;;;;;;10.35;6.78;;;10.90;99.90;;;;;;4992264;28;20046;-40
2022/10/23 04:51:01;;;;;;;13.07;7.53;;;10.90;99.90;;;;;;4991684;28;20078;-39
2022/10/23 04:53:28;;;;;;;16.38;6.85;;;10.90;99.90;;;;;;4989780;28;20061;-40
2022/10/23 04:55:55;;;;;;;14.50;7.70;;;10.90;99.90;;;;;;4990077;28;20043;-52
2022/10/23 04:58:22;;;;;;;10.48;7.13;;;10.90;99.90;;;;;;4988649;28;20039;-40
2022/10/23 05:00:48;;;;;;;13.23;7.20;;;10.90;99.90;;;;;;4989622;28;20069;-39
2022/10/23 05:03:16;;;;;;;13.20;7.25;;;10.90;99.90;;;;;;4989717;28;20040;-40
2022/10/23 05:05:42;;;;;;;15.40;7.72;;;10.90;99.90;;;;;;4990730;28;20134;-46
2022/10/23 05:08:08;;;;;;;14.50;7.32;;;10.90;99.90;;;;;;4991556;28;20646;-40
2022/10/23 05:10:34;;;;;;;12.77;6.47;;;10.90;99.90;;;;;;4985935;28;20042;-40
2022/10/23 05:13:01;;;;;;;19.63;7.30;;;10.80;99.90;;;;;;4989734;28;20128;-46
2022/10/23 05:15:26;;;;;;;14.90;8.07;;;10.80;99.90;;;;;;4990002;28;20030;-40
2022/10/23 05:17:57;;;;;;;14.45;7.55;;;10.80;99.90;;;;;;4991225;28;20061;-41
2022/10/23 05:20:29;;;;;;;13.32;7.93;;;10.80;99.90;;;;;;4993422;28;20038;-40
2022/10/23 05:22:57;;;;;;;14.38;6.70;;;10.80;99.90;;;;;;4984860;28;20134;-44
2022/10/23 05:25:22;;;;;;;10.88;5.45;;;10.80;99.90;;;;;;4987286;28;20038;-44
2022/10/23 05:27:48;;;;;;;16.65;7.05;;;10.80;99.90;;;;;;4991837;28;20046;-42
2022/10/23 05:30:14;;;;;;;12.50;6.82;;;10.80;99.90;;;;;;4990745;28;20566;-40
2022/10/23 05:32:40;;;;;;;12.20;6.90;;;10.80;99.90;;;;;;4988788;28;20128;-43
2022/10/23 05:35:08;;;;;;;12.77;6.88;;;10.80;99.90;;;;;;4989803;28;20439;-45
2022/10/23 05:37:37;;;;;;;11.07;5.20;;;10.80;99.90;;;;;;4989393;28;20042;-41
2022/10/23 05:40:03;;;;;;;11.48;5.68;;;10.80;99.90;;;;;;4986545;28;20055;-40
2022/10/23 05:42:29;;;;;;;13.10;6.28;;;10.80;99.90;;;;;;4982521;28;20043;-41
2022/10/23 05:44:54;;;;;;;10.15;5.65;;;10.90;99.90;;;;;;4983640;28;20052;-41
2022/10/23 05:47:20;;;;;;;13.30;7.40;;;10.80;99.90;;;;;;4990649;28;20057;-40
2022/10/23 05:49:45;;;;;;;12.25;7.20;;;10.90;99.90;;;;;;4985698;28;20085;-40
2022/10/23 05:52:12;;;;;;;14.27;7.80;;;10.90;99.90;;;;;;4986824;28;20510;-41
2022/10/23 05:54:37;;;;;;;10.65;6.72;;;10.90;99.90;;;;;;4987346;28;20038;-39
2022/10/23 05:57:03;;;;;;;12.60;7.55;;;10.90;99.90;;;;;;4990775;28;20459;-40
2022/10/23 05:59:28;;;;;;;13.30;6.50;;;10.90;99.90;;;;;;4983731;28;20061;-40
2022/10/23 06:01:54;;;;;;;15.40;7.28;;;10.90;99.90;;;;;;4990039;28;20065;-40
2022/10/23 06:04:20;;;;;;;13.63;5.43;;;10.90;99.90;;;;;;4991889;28;20063;-40
2022/10/23 06:06:46;;;;;;;11.95;6.20;;;10.90;99.90;;;;;;4991156;28;20031;-40
2022/10/23 06:09:13;;;;;;;15.05;7.05;;;10.90;99.90;;;;;;4985526;28;20039;-40
2022/10/23 06:11:38;;;;;;;11.60;6.50;;;10.90;99.90;;;;;;4988646;28;20057;-39
2022/10/23 06:14:06;;;;;;;10.80;6.97;;;11.00;99.90;;;;;;4988852;28;20042;-45
2022/10/23 06:16:32;;;;;;;14.23;5.97;;;11.00;99.90;;;;;;4991411;28;20117;-40
2022/10/23 06:18:58;;;;;;;15.38;6.28;;;11.00;99.90;;;;;;4988735;28;20416;-39
2022/10/23 06:21:24;;;;;;;12.82;6.70;;;11.00;99.90;;;;;;4989486;28;20038;-40
2022/10/23 06:23:50;;;;;;;11.07;6.50;;;11.00;99.90;;;;;;4985847;28;20508;-41
2022/10/23 06:26:17;;;;;;;15.43;6.63;;;11.00;99.90;;;;;;4990345;28;20045;-41
2022/10/23 06:28:43;;;;;;;16.02;5.85;;;11.00;99.90;;;;;;4990990;28;20038;-42
2022/10/23 06:31:12;;;;;;;13.63;7.93;;;11.10;99.90;;;;;;4989903;28;20400;-41
2022/10/23 06:33:37;;;;;;;9.65;5.13;;;11.10;99.90;;;;;;4990511;28;20426;-44
2022/10/23 06:36:04;;;;;;;11.18;5.35;;;11.10;99.90;;;;;;4989351;28;20045;-40
2022/10/23 06:38:35;;;;;;;10.23;6.40;;;11.10;99.90;;;;;;4988347;28;20046;-40
2022/10/23 06:41:02;;;;;;;10.60;5.95;;;11.10;99.90;;;;;;4982870;28;20035;-40
2022/10/23 06:43:28;;;;;;;10.95;6.03;;;11.10;99.90;;;;;;4985280;28;20421;-40
2022/10/23 06:45:53;;;;;;;10.90;6.72;;;11.20;99.90;;;;;;4985185;28;20108;-39
2022/10/23 06:48:19;;;;;;;12.70;5.40;;;11.20;99.90;;;;;;4987454;28;20042;-42
2022/10/23 06:50:45;;;;;;;11.48;6.15;;;11.20;99.90;;;;;;4989209;28;20034;-40
2022/10/23 06:53:11;;;;;;;10.95;5.40;;;11.20;99.90;;;;;;4982849;28;20085;-40
2022/10/23 06:55:38;;;;;;;12.50;5.85;;;11.30;99.90;;;;;;4986310;28;20121;-45
2022/10/23 06:58:09;;;;;;;9.60;5.40;;;11.30;99.90;;;;;;4989446;28;20764;-40
2022/10/23 07:00:38;;;;;;;10.27;4.95;;;11.30;99.90;;;;;;4988189;28;20112;-41
2022/10/23 07:03:04;;;;;;;11.90;5.97;;;11.30;99.90;;;;;;4980436;28;20034;-41
2022/10/23 07:05:31;;;;;;;11.88;5.90;;;11.30;99.90;;;;;;4987264;28;20049;-47
2022/10/23 07:07:57;;;;;;;12.18;7.05;;;11.40;99.90;;;;;;4988256;28;20053;-42
2022/10/23 07:10:22;;;;;;;13.35;6.40;;;11.40;99.90;;;;;;4982456;28;20431;-40
2022/10/23 07:12:48;;;;;;;15.02;7.30;;;11.40;99.90;;;;;;4985708;28;20118;-40
2022/10/23 07:15:14;;;;;;;17.52;6.82;;;11.40;99.90;;;;;;4988162;28;20482;-44
2022/10/23 07:17:40;;;;;;;15.38;7.03;;;11.40;99.90;;;;;;4980148;28;20042;-40
2022/10/23 07:20:06;;;;;;;12.45;6.50;;;11.50;99.90;;;;;;4988251;28;20034;-40
2022/10/23 07:22:32;;;;;;;13.77;5.85;;;11.50;99.90;;;;;;4986428;28;20041;-41
2022/10/23 07:24:58;;;;;;;12.25;5.80;;;11.50;99.90;;;;;;4986548;28;20046;-40
2022/10/23 07:27:24;;;;;;;11.93;7.40;;;11.50;99.90;;;;;;4990046;28;20579;-40
2022/10/23 07:29:50;;;;;;;11.45;6.20;;;11.60;99.90;;;;;;4987247;28;20050;-40
2022/10/23 07:32:17;;;;;;;11.52;6.30;;;11.60;99.90;;;;;;4987221;28;20193;-40
2022/10/23 07:34:42;;;;;;;14.93;6.80;;;11.60;99.90;;;;;;4982948;28;20038;-44
2022/10/23 07:37:08;;;;;;;9.13;5.53;;;11.70;99.90;;;;;;4979709;28;20037;-40
2022/10/23 07:39:34;;;;;;;15.27;7.88;;;11.70;99.90;;;;;;4981462;28;20101;-40
2022/10/23 07:41:59;;;;;;;13.40;7.28;;;11.80;99.90;;;;;;4986829;28;21207;-41
2022/10/23 07:44:25;;;;;;;12.02;7.53;;;11.80;99.90;;;;;;4984688;28;20415;-39
2022/10/23 07:46:51;;;;;;;14.82;6.25;;;11.80;99.90;;;;;;4986412;28;20078;-41
2022/10/23 07:49:16;;;;;;;12.90;7.10;;;11.90;99.90;;;;;;4985324;28;20041;-41
2022/10/23 07:51:42;;;;;;;13.80;7.15;;;11.90;99.90;;;;;;4988768;28;20038;-39
2022/10/23 07:54:11;;;;;;;10.10;5.60;;;11.90;99.90;;;;;;4986459;28;20042;-40
2022/10/23 07:56:36;;;;;;;11.02;6.18;;;12.00;99.90;;;;;;4983673;28;20046;-40
2022/10/23 07:59:03;;;;;;;11.25;7.00;;;12.00;99.90;;;;;;4988190;28;20061;-40
2022/10/23 08:01:35;;;;;;;13.10;6.90;;;12.10;99.90;;;;;;4981860;28;20046;-39
2022/10/23 08:04:01;;;;;;;11.02;6.18;;;12.10;99.90;;;;;;4985990;28;20399;-40
2022/10/23 08:06:27;;;;;;;15.85;6.78;;;12.10;99.90;;;;;;4984839;28;20046;-41
2022/10/23 08:08:52;;;;;;;10.13;6.45;;;12.20;99.90;;;;;;4987236;28;20046;-40
2022/10/23 08:11:26;;;;;;;15.63;7.05;;;12.30;99.90;;;;;;4985373;28;20106;-40
2022/10/23 08:13:54;;;;;;;9.38;6.13;;;12.30;99.90;;;;;;4982941;28;20061;-41
2022/10/23 08:16:21;;;;;;;12.70;7.30;;;12.30;99.90;;;;;;4983682;28;20129;-41
2022/10/23 08:18:48;;;;;;;10.18;6.03;;;12.40;99.90;;;;;;4986155;28;20039;-40
2022/10/23 08:21:15;;;;;;;13.40;6.60;;;12.50;99.90;;;;;;4986361;28;20121;-40
2022/10/23 08:23:41;;;;;;;13.13;6.20;;;12.50;99.90;;;;;;4985279;28;20045;-40
2022/10/23 08:26:07;;;;;;;9.75;6.10;;;12.60;99.90;;;;;;4985219;28;20038;-40
2022/10/23 08:28:33;;;;;;;11.10;6.68;;;12.60;99.90;;;;;;4985637;28;20388;-40
2022/10/23 08:31:10;;;;;;;12.02;6.45;;;12.70;99.90;;;;;;4986090;28;20046;-40
2022/10/23 08:33:36;;;;;;;11.20;6.05;;;12.80;99.90;;;;;;4983737;28;20039;-41
2022/10/23 08:36:03;;;;;;;9.23;5.32;;;12.80;99.90;;;;;;4983793;28;20503;-39
2022/10/23 08:38:28;;;;;;;8.45;5.00;;;12.90;99.90;;;;;;4987512;28;20528;-40
2022/10/23 08:40:54;;;;;;;11.73;5.90;;;13.00;99.90;;;;;;4983024;28;20058;-40
2022/10/23 08:43:42;;;;;;;11.38;5.95;;;13.00;99.90;;;;;;4986070;28;20033;-40
2022/10/23 08:46:13;;;;;;;10.02;5.30;;;13.10;99.90;;;;;;4986962;28;20100;-40
2022/10/23 08:48:47;;;;;;;9.65;5.80;;;13.10;99.90;;;;;;4984098;28;20476;-40
2022/10/23 08:51:36;;;;;;;9.27;5.05;;;13.20;99.90;;;;;;4984533;28;20062;-41
2022/10/23 08:54:12;;;;;;;9.95;5.95;;;13.20;99.90;;;;;;4980904;28;20046;-39
2022/10/23 08:56:41;;;;;;;9.68;5.95;;;13.30;99.90;;;;;;4986289;28;20112;-39
2022/10/23 08:59:38;;;;;;;13.93;6.78;;;13.30;99.90;;;;;;4972991;28;20046;-40
2022/10/23 09:02:45;;;;;;;10.77;5.68;;;13.40;99.90;;;;;;4980004;28;20101;-42
2022/10/23 09:05:35;;;;;;;9.98;5.78;;;13.40;99.90;;;;;;4924109;29;20115;-40
2022/10/23 09:08:42;;;;;;;9.35;5.85;;;13.50;99.90;;;;;;4922812;29;20056;-41
2022/10/23 09:11:41;;;;;;;10.05;5.85;;;13.50;99.90;;;;;;4969286;28;20054;-45
2022/10/23 09:14:39;;;;;;;8.27;4.80;;;13.60;99.90;;;;;;4983712;28;20051;-40
2022/10/23 09:17:25;;;;;;;7.68;5.03;;;13.60;99.90;;;;;;4973847;28;20089;-39
2022/10/23 09:20:17;;;;;;;12.25;5.90;;;13.70;99.90;;;;;;4981898;28;20053;-40
2022/10/23 09:22:45;;;;;;;9.57;5.03;;;13.70;99.90;;;;;;4991344;28;20492;-40
2022/10/23 09:25:24;;;;;;;10.35;4.82;;;13.80;99.90;;;;;;4988606;28;20038;-40
2022/10/23 09:27:52;;;;;;;9.57;4.70;;;13.90;99.90;;;;;;4989938;28;20042;-40
2022/10/23 09:30:31;;;;;;;7.20;4.45;;;13.90;99.90;;;;;;4983723;28;20117;-39
2022/10/23 09:32:59;;;;;;;9.85;4.97;;;13.90;99.90;;;;;;4986315;28;20088;-39
2022/10/23 09:35:28;;;;;;;11.55;5.05;;;14.00;99.90;;;;;;4988253;28;20070;-39
2022/10/23 09:37:54;;;;;;;10.93;5.13;;;14.00;99.90;;;;;;4984721;28;20514;-40
2022/10/23 09:40:34;;;;;;;10.65;5.13;;;14.00;99.90;;;;;;4985647;28;20510;-39
2022/10/23 09:43:03;;;;;;;11.13;4.85;;;14.00;99.90;;;;;;4981876;28;20483;-41
2022/10/23 09:45:34;;;;;;;7.35;4.38;;;14.00;99.90;;;;;;4981218;28;20058;-39
2022/10/23 09:48:17;;;;;;;10.95;5.05;;;14.10;99.90;;;;;;4984819;28;20054;-39
2022/10/23 09:50:52;;;;;;;7.53;4.40;;;14.10;99.90;;;;;;4982652;28;20073;-40
2022/10/23 09:53:37;;;;;;;8.98;4.30;;;14.10;99.90;;;;;;4969189;28;20039;-39
2022/10/23 09:56:27;;;;;;;9.25;4.95;;;14.20;99.90;;;;;;4977865;28;20126;-40
2022/10/23 09:59:20;;;;;;;12.07;4.50;;;14.20;99.90;;;;;;4977499;28;20046;-40
2022/10/23 10:02:35;;;;;;;8.13;4.57;;;14.20;99.90;;;;;;4981530;28;20074;-40
2022/10/23 10:05:38;;;;;;;7.25;4.03;;;14.30;99.90;;;;;;4965022;28;20055;-39
2022/10/23 10:08:30;;;;;;;8.20;4.32;;;14.30;99.90;;;;;;4911600;29;20557;-39
2022/10/23 10:11:18;;;;;;;7.43;4.00;;;14.30;99.90;;;;;;4984383;28;20053;-40
2022/10/23 10:14:03;;;;;;;8.13;3.70;;;14.40;99.90;;;;;;4988262;28;20141;-39
2022/10/23 10:16:46;;;;;;;7.93;4.07;;;14.40;99.90;;;;;;4984417;28;20031;-40
2022/10/23 10:19:26;;;;;;;8.68;3.85;;;14.50;99.90;;;;;;4995480;28;20054;-40
2022/10/23 10:22:07;;;;;;;7.40;4.30;;;14.50;99.90;;;;;;4986137;28;20046;-39
2022/10/23 10:24:57;;;;;;;7.43;3.95;;;14.50;99.90;;;;;;4992468;28;20065;-39
2022/10/23 10:27:40;;;;;;;7.10;3.90;;;14.50;99.90;;;;;;4984050;28;20121;-40
2022/10/23 10:30:21;;;;;;;9.88;4.32;;;14.60;99.90;;;;;;4990950;28;20045;-39
2022/10/23 10:33:08;;;;;;;6.47;3.63;;;14.50;99.90;;;;;;4984263;28;20034;-39
2022/10/23 10:35:41;;;;;;;7.00;3.50;;;14.50;99.90;;;;;;4985144;28;20038;-40
2022/10/23 10:38:22;;;;;;;5.90;3.38;;;14.60;99.90;;;;;;4985203;28;20057;-40
2022/10/23 10:41:07;;;;;;;7.78;3.67;;;14.50;99.90;;;;;;4988587;28;20042;-40
2022/10/23 10:43:50;;;;;;;7.97;3.60;;;14.50;99.90;;;;;;4985798;28;20042;-40
2022/10/23 10:46:35;;;;;;;7.75;3.08;;;14.50;99.90;;;;;;4986376;28;20058;-40
2022/10/23 10:49:21;;;;;;;7.18;3.65;;;14.50;99.90;;;;;;4988282;28;20574;-40
2022/10/23 10:51:58;;;;;;;9.35;3.30;;;14.50;99.90;;;;;;4983697;28;20491;-40
2022/10/23 10:55:00;;;;;;;9.65;3.50;;;14.50;99.90;;;;;;4987456;28;20097;-40
2022/10/23 10:57:43;;;;;;;6.07;3.55;;;14.50;99.90;;;;;;4981516;28;20530;-39
2022/10/23 11:00:18;;;;;;;9.13;3.53;;;14.50;99.90;;;;;;4989559;28;20043;-41
2022/10/23 11:02:54;;;;;;;7.00;3.78;;;14.50;99.90;;;;;;4985734;28;20049;-39
2022/10/23 11:05:38;;;;;;;6.95;3.63;;;14.50;99.90;;;;;;4985152;28;20450;-39
2022/10/23 11:08:26;;;;;;;5.70;3.20;;;14.50;99.90;;;;;;4966500;28;20540;-40
2022/10/23 11:10:57;;;;;;;8.15;3.47;;;14.50;99.90;;;;;;4999893;28;20400;-52
2022/10/23 11:13:36;;;;;;;7.68;3.10;;;14.50;99.90;;;;;;4985134;28;21611;-39
2022/10/23 11:16:25;;;;;;;5.93;2.90;;;14.60;99.90;;;;;;4966244;28;20034;-40
2022/10/23 11:19:24;;;;;;;5.65;3.03;;;14.60;99.90;;;;;;4980866;28;20050;-40
2022/10/23 11:22:08;;;;;;;7.70;3.60;;;14.60;99.90;;;;;;4982887;28;20385;-38
2022/10/23 11:24:49;;;;;;;6.55;3.60;;;14.70;99.90;;;;;;4982048;28;20088;-39
2022/10/23 11:27:29;;;;;;;8.90;3.17;;;14.70;99.90;;;;;;4974580;28;20089;-38
2022/10/23 11:30:18;;;;;;;6.13;3.30;;;14.80;99.90;;;;;;4982582;28;20050;-41
2022/10/23 11:33:07;;;;;;;7.68;3.03;;;14.80;99.90;;;;;;4981538;28;20049;-39
2022/10/23 11:36:05;;;;;;;8.55;3.08;;;14.80;99.90;;;;;;4980355;28;20038;-39
2022/10/23 11:38:37;;;;;;;5.97;3.10;;;14.80;99.90;;;;;;4978994;28;20082;-39
2022/10/23 11:41:17;;;;;;;7.07;3.05;;;14.80;99.90;;;;;;4975575;28;20034;-39
2022/10/23 11:43:54;;;;;;;5.40;3.10;;;14.90;99.90;;;;;;4973611;28;20523;-38
2022/10/23 11:46:26;;;;;;;6.28;2.60;;;14.90;99.90;;;;;;4976769;28;20562;-39
2022/10/23 11:48:53;;;;;;;11.13;3.28;;;14.80;99.90;;;;;;4975580;28;20141;-39
2022/10/23 11:51:39;;;;;;;7.43;3.15;;;14.90;99.90;;;;;;4982148;28;20703;-38
2022/10/23 11:54:12;;;;;;;6.85;2.67;;;14.90;99.90;;;;;;4981480;28;20081;-39
2022/10/23 11:57:08;;;;;;;5.43;2.65;;;14.80;99.90;;;;;;4979285;28;20047;-39
2022/10/23 11:59:52;;;;;;;4.15;2.80;;;14.80;99.90;;;;;;4986287;28;20042;-38
2022/10/23 12:02:36;;;;;;;6.63;3.05;;;14.90;99.90;;;;;;4984466;28;21598;-38
2022/10/23 12:05:28;;;;;;;7.72;2.88;;;14.90;99.90;;;;;;4985276;28;20511;-38
2022/10/23 12:08:00;;;;;;;9.95;2.65;;;14.90;99.90;;;;;;4984773;28;20138;-37
2022/10/23 12:10:30;;;;;;;4.85;2.15;;;14.90;99.90;;;;;;4992116;28;20042;-38
2022/10/23 12:12:58;;;;;;;6.00;2.60;;;14.90;99.90;;;;;;4987724;28;20042;-38
2022/10/23 12:15:25;;;;;;;6.80;2.47;;;15.00;99.90;;;;;;4989353;28;20034;-39
2022/10/23 12:17:57;;;;;;;4.25;2.08;;;15.00;99.90;;;;;;4988092;28;20046;-38
2022/10/23 12:20:25;;;;;;;6.65;2.55;;;15.00;99.90;;;;;;4990776;28;20041;-39
2022/10/23 12:23:06;;;;;;;4.80;2.60;;;15.00;99.90;;;;;;4982637;28;20499;-40
2022/10/23 12:26:05;;;;;;;5.18;2.10;;;15.00;99.90;;;;;;4982569;28;20399;-40
2022/10/23 12:28:41;;;;;;;9.88;2.58;;;15.00;99.90;;;;;;4988038;28;20100;-39
2022/10/23 12:31:25;;;;;;;4.72;2.53;;;15.00;99.90;;;;;;4987597;28;20042;-38
2022/10/23 12:34:18;;;;;;;7.75;2.13;;;15.00;99.90;;;;;;4979628;28;20042;-39
2022/10/23 12:37:25;;;;;;;6.93;2.35;;;15.00;99.90;;;;;;4986269;28;20496;-39
2022/10/23 12:39:54;;;;;;;3.22;1.67;;;15.20;99.90;;;;;;4984565;28;20074;-38
2022/10/23 12:42:22;;;;;;;5.28;2.33;;;15.30;99.90;;;;;;4981124;28;20070;-38
2022/10/23 12:45:11;;;;;;;5.35;1.98;;;15.40;99.90;;;;;;4988281;28;20534;-38
2022/10/23 12:47:38;;;;;;;7.75;2.30;;;15.40;99.90;;;;;;4977093;28;20060;-40
2022/10/23 12:50:19;;;;;;;5.75;2.40;;;15.50;99.90;;;;;;4989696;28;20046;-38
2022/10/23 12:52:59;;;;;;;5.00;1.77;;;15.60;99.90;;;;;;4981479;28;20447;-39
2022/10/23 12:55:30;;;;;;;3.67;1.85;;;15.70;99.90;;;;;;4986703;28;20038;-39
2022/10/23 12:57:56;;;;;;;5.47;2.13;;;15.70;99.90;;;;;;4987864;28;20073;-38
2022/10/23 13:00:24;;;;;;;4.78;1.98;;;15.80;99.90;;;;;;4990462;28;20050;-44
2022/10/23 13:03:03;;;;;;;4.07;1.95;;;15.80;99.90;;;;;;4987781;28;20084;-41
2022/10/23 13:05:30;;;;;;;6.63;2.35;;;15.80;99.90;;;;;;4987753;28;20133;-38
2022/10/23 13:07:59;;;;;;;6.00;2.00;;;15.90;99.90;;;;;;4987703;28;20464;-38
2022/10/23 13:10:25;;;;;;;8.48;2.20;;;15.90;99.90;;;;;;4988043;28;20052;-38